Time;durP1;ratioP1;P1;durP2;ratioP2;P2;SDS_P1;SDS_P2;PMS_P1;PMS_P2;Temp;Humidity;BMP_temperature;BMP_pressure;BME280_temperature;BME280_humidity;BME280_pressure;Samples;Min_cycle;Max_cycle;Signal;HPM_P1;HPM_P2
2021/12/31 00:00:56;;;;;;;6.57;3.60;;;13.80;99.90;;;;;;4982338;28;20204;-74
2021/12/31 00:03:24;;;;;;;4.78;3.45;;;13.80;99.90;;;;;;4997541;28;20192;-74
2021/12/31 00:05:51;;;;;;;6.78;3.97;;;13.80;99.90;;;;;;4991025;28;20197;-74
2021/12/31 00:08:19;;;;;;;5.65;3.28;;;13.80;99.90;;;;;;4977406;28;20229;-73
2021/12/31 00:11:06;;;;;;;5.65;3.70;;;13.80;99.90;;;;;;4982939;28;20200;-74
2021/12/31 00:13:33;;;;;;;6.15;3.30;;;13.80;99.90;;;;;;4974711;28;20195;-74
2021/12/31 00:16:02;;;;;;;6.78;3.55;;;13.80;99.90;;;;;;4975844;28;20207;-74
2021/12/31 00:18:29;;;;;;;3.88;3.13;;;13.80;99.90;;;;;;4974706;28;20216;-73
2021/12/31 00:20:57;;;;;;;4.70;3.60;;;13.80;99.90;;;;;;4976569;28;20208;-74
2021/12/31 00:23:26;;;;;;;5.47;3.20;;;13.80;99.90;;;;;;4988708;28;20192;-74
2021/12/31 00:25:54;;;;;;;7.22;3.38;;;13.80;99.90;;;;;;4970125;28;20725;-74
2021/12/31 00:28:22;;;;;;;3.38;2.42;;;13.90;99.90;;;;;;4976993;28;20228;-74
2021/12/31 00:30:54;;;;;;;6.65;2.65;;;13.90;99.90;;;;;;4979058;28;20185;-74
2021/12/31 00:33:24;;;;;;;5.78;3.33;;;13.90;99.90;;;;;;4974417;28;20600;-74
2021/12/31 00:36:06;;;;;;;5.22;3.05;;;13.90;99.90;;;;;;4992527;28;20207;-75
2021/12/31 00:38:33;;;;;;;4.15;2.35;;;14.00;99.90;;;;;;4991128;28;20223;-74
2021/12/31 00:41:00;;;;;;;6.68;2.75;;;14.00;99.90;;;;;;4974033;28;20200;-73
2021/12/31 00:43:28;;;;;;;4.68;2.80;;;14.00;99.90;;;;;;4972340;28;20201;-74
2021/12/31 00:45:55;;;;;;;6.20;2.50;;;14.10;99.90;;;;;;4976279;28;20204;-75
2021/12/31 00:48:24;;;;;;;4.07;2.20;;;14.10;99.90;;;;;;4934644;28;1125602;-73
2021/12/31 00:50:51;;;;;;;6.07;2.47;;;14.10;99.90;;;;;;4974877;28;20215;-74
2021/12/31 00:53:18;;;;;;;8.68;2.53;;;14.10;99.90;;;;;;4978938;28;20661;-74
2021/12/31 00:55:46;;;;;;;7.75;2.88;;;14.20;99.90;;;;;;4992236;28;20200;-75
2021/12/31 00:58:13;;;;;;;3.50;2.25;;;14.20;99.90;;;;;;4974266;28;20303;-74
2021/12/31 01:00:41;;;;;;;6.80;2.45;;;14.30;99.90;;;;;;5013059;28;20210;-72
2021/12/31 01:03:12;;;;;;;3.80;2.50;;;14.30;99.90;;;;;;4991925;28;20219;-74
2021/12/31 01:05:41;;;;;;;6.85;2.40;;;14.20;99.90;;;;;;4988793;28;20196;-74
2021/12/31 01:08:08;;;;;;;5.75;2.53;;;14.30;99.90;;;;;;4991857;28;20220;-74
2021/12/31 01:10:39;;;;;;;4.55;2.47;;;14.30;99.90;;;;;;4978910;28;20207;-74
2021/12/31 01:13:10;;;;;;;3.60;2.15;;;14.30;99.90;;;;;;4977310;28;20202;-74
2021/12/31 01:15:41;;;;;;;3.97;2.58;;;14.20;99.90;;;;;;4974760;28;20200;-73
2021/12/31 01:18:27;;;;;;;3.10;2.40;;;14.30;99.90;;;;;;4993824;28;20208;-74
2021/12/31 01:20:56;;;;;;;5.28;2.42;;;14.30;99.90;;;;;;4995721;28;20268;-74
2021/12/31 01:23:23;;;;;;;6.90;2.17;;;14.30;99.90;;;;;;4977970;28;20200;-74
2021/12/31 01:25:50;;;;;;;6.25;2.00;;;14.30;99.90;;;;;;4993479;28;20550;-74
2021/12/31 01:28:19;;;;;;;5.03;1.88;;;14.40;99.90;;;;;;4994585;28;20220;-74
2021/12/31 01:30:46;;;;;;;4.95;2.30;;;14.40;99.90;;;;;;4991673;28;20203;-74
2021/12/31 01:33:13;;;;;;;3.22;2.08;;;14.40;99.90;;;;;;4977590;28;20211;-73
2021/12/31 01:35:41;;;;;;;5.05;2.25;;;14.40;99.90;;;;;;4997636;28;20200;-74
2021/12/31 01:38:45;;;;;;;5.00;2.33;;;14.40;99.90;;;;;;4985338;28;20211;-74
2021/12/31 01:41:12;;;;;;;4.68;2.17;;;14.40;99.90;;;;;;4996064;28;20196;-74
2021/12/31 01:43:39;;;;;;;4.05;1.77;;;14.40;99.90;;;;;;4999717;28;20185;-73
2021/12/31 01:46:11;;;;;;;6.07;2.47;;;14.40;99.90;;;;;;5003383;28;20192;-73
2021/12/31 01:49:00;;;;;;;5.18;2.10;;;14.40;99.90;;;;;;4976144;28;20217;-75
2021/12/31 01:51:28;;;;;;;4.13;1.80;;;14.40;99.90;;;;;;4997078;28;20204;-74
2021/12/31 01:53:57;;;;;;;4.55;2.15;;;14.40;99.90;;;;;;4980045;28;20215;-74
2021/12/31 01:56:28;;;;;;;3.15;1.83;;;14.50;99.90;;;;;;4990785;28;20190;-74
2021/12/31 01:58:57;;;;;;;2.15;1.50;;;14.50;99.90;;;;;;4981350;28;20232;-74
2021/12/31 02:01:25;;;;;;;4.47;1.80;;;14.50;99.90;;;;;;4995223;28;20199;-74
2021/12/31 02:03:52;;;;;;;4.00;1.90;;;14.50;99.90;;;;;;4975431;28;20207;-70
2021/12/31 02:06:20;;;;;;;3.97;1.60;;;14.60;99.90;;;;;;4988796;28;20201;-73
2021/12/31 02:08:47;;;;;;;3.00;1.80;;;14.60;99.90;;;;;;4980516;28;20709;-75
2021/12/31 02:11:20;;;;;;;3.17;1.60;;;14.60;99.90;;;;;;4984467;28;20204;-73
2021/12/31 02:13:48;;;;;;;3.03;1.70;;;14.50;99.90;;;;;;4988133;28;20196;-73
2021/12/31 02:16:15;;;;;;;2.28;1.50;;;14.50;99.90;;;;;;4984414;28;20204;-74
2021/12/31 02:18:44;;;;;;;3.97;1.75;;;14.50;99.90;;;;;;4969181;28;20216;-74
2021/12/31 02:21:14;;;;;;;3.65;1.63;;;14.60;99.90;;;;;;4977622;28;20204;-75
2021/12/31 02:23:45;;;;;;;3.17;1.60;;;14.50;99.90;;;;;;4979919;28;20865;-74
2021/12/31 02:26:13;;;;;;;2.88;1.70;;;14.60;99.90;;;;;;4996626;28;20212;-74
2021/12/31 02:28:41;;;;;;;3.05;1.70;;;14.50;99.90;;;;;;4998690;28;20215;-74
2021/12/31 02:31:08;;;;;;;1.67;1.52;;;14.60;99.90;;;;;;4972515;28;20196;-73
2021/12/31 02:33:36;;;;;;;2.35;1.95;;;14.60;99.90;;;;;;4973016;28;20228;-73
2021/12/31 02:36:06;;;;;;;3.72;2.00;;;14.50;99.90;;;;;;4987854;28;20196;-73
2021/12/31 02:38:35;;;;;;;4.45;1.77;;;14.50;99.90;;;;;;4988706;28;22031;-74
2021/12/31 02:41:03;;;;;;;4.85;1.80;;;14.50;99.90;;;;;;4993338;28;20189;-75
2021/12/31 02:43:30;;;;;;;3.22;1.80;;;14.50;99.90;;;;;;4980196;28;20563;-74
2021/12/31 02:45:58;;;;;;;5.25;1.80;;;14.50;99.90;;;;;;5009054;28;20204;-74
2021/12/31 02:48:26;;;;;;;2.95;1.80;;;14.50;99.90;;;;;;5002720;28;20224;-74
2021/12/31 02:51:17;;;;;;;4.47;2.10;;;14.50;99.90;;;;;;4975690;28;20219;-74
2021/12/31 02:53:51;;;;;;;3.47;1.80;;;14.50;99.90;;;;;;4993347;28;20197;-74
2021/12/31 02:56:19;;;;;;;2.80;2.13;;;14.50;99.90;;;;;;4995824;28;20188;-74
2021/12/31 02:58:47;;;;;;;2.33;1.98;;;14.50;99.90;;;;;;4978636;28;20209;-74
2021/12/31 03:01:14;;;;;;;5.45;1.95;;;14.50;99.90;;;;;;5005023;28;20204;-74
2021/12/31 03:03:42;;;;;;;3.05;1.80;;;14.50;99.90;;;;;;4979334;28;20567;-72
2021/12/31 03:06:11;;;;;;;2.80;1.90;;;14.50;99.90;;;;;;4980411;28;20207;-75
2021/12/31 03:08:42;;;;;;;3.95;1.95;;;14.50;99.90;;;;;;4986142;28;20216;-73
2021/12/31 03:11:12;;;;;;;6.55;1.95;;;14.50;99.90;;;;;;4986168;28;20666;-74
2021/12/31 03:13:40;;;;;;;2.95;1.80;;;14.50;99.90;;;;;;4993654;28;20195;-74
2021/12/31 03:16:08;;;;;;;5.13;1.95;;;14.50;99.90;;;;;;4981459;28;20196;-74
2021/12/31 03:18:37;;;;;;;5.57;1.90;;;14.50;99.90;;;;;;4984046;28;20530;-74
2021/12/31 03:21:09;;;;;;;2.63;2.17;;;14.40;99.90;;;;;;4999775;28;20188;-72
2021/12/31 03:23:37;;;;;;;4.20;2.42;;;14.50;99.90;;;;;;4980521;28;20201;-74
2021/12/31 03:26:04;;;;;;;1.90;1.70;;;14.50;99.90;;;;;;4976274;28;20211;-74
2021/12/31 03:28:33;;;;;;;2.63;1.73;;;14.50;99.90;;;;;;4975993;28;20227;-74
2021/12/31 03:31:00;;;;;;;2.42;1.80;;;14.50;99.90;;;;;;4975185;28;20209;-74
2021/12/31 03:33:28;;;;;;;3.17;2.10;;;14.50;99.90;;;;;;4977810;28;20215;-74
2021/12/31 03:35:55;;;;;;;5.22;2.00;;;14.50;99.90;;;;;;4993469;28;20211;-74
2021/12/31 03:38:22;;;;;;;4.13;1.98;;;14.50;99.90;;;;;;4980356;28;20346;-74
2021/12/31 03:44:39;;;;;;;6.38;1.90;;;14.50;99.90;;;;;;5002356;28;20179;-75
2021/12/31 03:47:07;;;;;;;2.90;1.63;;;14.50;99.90;;;;;;4970646;28;20224;-71
2021/12/31 03:49:34;;;;;;;4.22;1.92;;;14.50;99.90;;;;;;4969721;28;20232;-74
2021/12/31 03:52:02;;;;;;;3.17;1.73;;;14.60;99.90;;;;;;4975778;28;20219;-75
2021/12/31 03:54:29;;;;;;;2.80;1.83;;;14.50;99.90;;;;;;4975799;28;20212;-73
2021/12/31 03:56:56;;;;;;;4.65;2.08;;;14.50;99.90;;;;;;4986440;28;20646;-72
2021/12/31 03:59:24;;;;;;;3.33;1.80;;;14.60;99.90;;;;;;4983882;28;20659;-74
2021/12/31 04:02:01;;;;;;;2.88;1.92;;;14.60;99.90;;;;;;4980967;28;20212;-74
2021/12/31 04:04:28;;;;;;;2.20;2.00;;;14.60;99.90;;;;;;4983048;28;20192;-74
2021/12/31 04:06:55;;;;;;;3.10;1.67;;;14.60;99.90;;;;;;4995578;28;20196;-74
2021/12/31 04:09:23;;;;;;;6.90;2.03;;;14.70;99.90;;;;;;4991307;28;20208;-73
2021/12/31 04:11:50;;;;;;;2.20;1.38;;;14.60;99.90;;;;;;4972002;28;20205;-73
2021/12/31 04:14:17;;;;;;;2.03;1.60;;;14.60;99.90;;;;;;4990956;28;20701;-75
2021/12/31 04:16:44;;;;;;;2.85;1.90;;;14.60;99.90;;;;;;4987259;28;20192;-74
2021/12/31 04:19:13;;;;;;;3.83;1.58;;;14.60;99.90;;;;;;4964668;28;20354;-74
2021/12/31 04:22:00;;;;;;;2.92;1.58;;;14.60;99.90;;;;;;4987193;28;20201;-74
2021/12/31 04:24:51;;;;;;;2.60;1.80;;;14.60;99.90;;;;;;5006996;28;20219;-73
2021/12/31 04:27:18;;;;;;;1.92;1.50;;;14.60;99.90;;;;;;4992026;28;20212;-75
2021/12/31 04:29:50;;;;;;;4.35;1.60;;;14.70;99.90;;;;;;5002746;28;20208;-74
2021/12/31 04:32:18;;;;;;;3.45;1.70;;;14.60;99.90;;;;;;4992361;28;20191;-74
2021/12/31 04:34:47;;;;;;;4.45;1.95;;;14.60;99.90;;;;;;4980422;28;20202;-74
2021/12/31 04:37:15;;;;;;;3.45;1.90;;;14.60;99.90;;;;;;4981084;28;20240;-73
2021/12/31 04:39:42;;;;;;;5.88;1.83;;;14.60;99.90;;;;;;4980077;28;20197;-74
2021/12/31 04:42:10;;;;;;;2.55;1.55;;;14.60;99.90;;;;;;4980120;28;20566;-74
2021/12/31 04:44:38;;;;;;;4.07;1.48;;;14.60;99.90;;;;;;4998306;28;20201;-75
2021/12/31 04:47:05;;;;;;;3.08;1.63;;;14.60;99.90;;;;;;4973405;28;20220;-74
2021/12/31 04:49:33;;;;;;;3.97;1.55;;;14.50;99.90;;;;;;4978724;28;20224;-73
2021/12/31 04:52:02;;;;;;;4.03;1.83;;;14.60;99.90;;;;;;4977421;28;20658;-75
2021/12/31 04:54:29;;;;;;;2.97;1.73;;;14.60;99.90;;;;;;4977692;28;20196;-73
2021/12/31 04:56:58;;;;;;;2.00;1.90;;;14.60;99.90;;;;;;4974952;28;20205;-74
2021/12/31 05:00:00;;;;;;;2.97;1.35;;;14.60;99.90;;;;;;4988607;28;20203;-75
2021/12/31 05:02:28;;;;;;;3.28;1.90;;;14.50;99.90;;;;;;4984804;28;20646;-74
2021/12/31 05:04:55;;;;;;;2.85;1.60;;;14.50;99.90;;;;;;4975247;28;20211;-74
2021/12/31 05:07:28;;;;;;;4.50;1.55;;;14.60;99.90;;;;;;4974562;28;20220;-74
2021/12/31 05:09:55;;;;;;;4.57;1.88;;;14.60;99.90;;;;;;4996066;28;20567;-74
2021/12/31 05:12:26;;;;;;;3.10;1.80;;;14.60;99.90;;;;;;4994869;28;20184;-73
2021/12/31 05:15:08;;;;;;;2.58;1.75;;;14.60;99.90;;;;;;4984833;28;20205;-73
2021/12/31 05:17:35;;;;;;;2.65;1.67;;;14.60;99.90;;;;;;4992555;28;20611;-75
2021/12/31 05:20:04;;;;;;;3.95;1.70;;;14.60;99.90;;;;;;4978197;28;20192;-75
2021/12/31 05:22:33;;;;;;;5.53;2.00;;;14.50;99.90;;;;;;5000683;28;20200;-75
2021/12/31 05:25:01;;;;;;;5.15;2.00;;;14.50;99.90;;;;;;4987377;28;20561;-74
2021/12/31 05:27:28;;;;;;;1.95;1.40;;;14.50;99.90;;;;;;4996029;28;20238;-74
2021/12/31 05:29:56;;;;;;;4.07;1.60;;;14.50;99.90;;;;;;4985737;28;20212;-75
2021/12/31 05:32:23;;;;;;;3.63;1.77;;;14.50;99.90;;;;;;4979555;28;20200;-74
2021/12/31 05:34:50;;;;;;;4.00;1.75;;;14.50;99.90;;;;;;4977432;28;20198;-74
2021/12/31 05:37:18;;;;;;;3.58;1.65;;;14.50;99.90;;;;;;4977742;28;20243;-75
2021/12/31 05:39:46;;;;;;;3.03;1.77;;;14.40;99.90;;;;;;4981188;28;20670;-74
2021/12/31 05:42:14;;;;;;;3.63;1.98;;;14.40;99.90;;;;;;4983420;28;20212;-74
2021/12/31 05:44:49;;;;;;;3.58;1.50;;;14.40;99.90;;;;;;4990064;28;20205;-69
2021/12/31 05:47:16;;;;;;;2.03;1.50;;;14.40;99.90;;;;;;4980311;28;20239;-75
2021/12/31 05:49:43;;;;;;;3.47;1.65;;;14.40;99.90;;;;;;4997639;28;20582;-75
2021/12/31 05:52:11;;;;;;;2.42;1.38;;;14.40;99.90;;;;;;4976104;28;20196;-74
2021/12/31 05:54:38;;;;;;;3.40;1.50;;;14.50;99.90;;;;;;4997129;28;20196;-75
2021/12/31 05:57:07;;;;;;;3.47;1.55;;;14.50;99.90;;;;;;4978111;28;20220;-74
2021/12/31 05:59:34;;;;;;;3.13;1.60;;;14.50;99.90;;;;;;4983057;28;20208;-74
2021/12/31 06:02:01;;;;;;;2.28;1.35;;;14.40;99.90;;;;;;4999634;28;20207;-73
2021/12/31 06:04:29;;;;;;;3.40;1.92;;;14.40;99.90;;;;;;4998442;28;20204;-73
2021/12/31 06:06:57;;;;;;;2.60;1.60;;;14.50;99.90;;;;;;4985741;28;20204;-75
2021/12/31 06:09:24;;;;;;;2.53;1.35;;;14.40;99.90;;;;;;4969709;28;20567;-74
2021/12/31 06:11:51;;;;;;;2.95;1.73;;;14.40;99.90;;;;;;5006345;28;20216;-73
2021/12/31 06:14:32;;;;;;;2.58;1.30;;;14.40;99.90;;;;;;4979750;28;20208;-75
2021/12/31 06:17:06;;;;;;;3.50;1.77;;;14.40;99.90;;;;;;4995784;28;20538;-74
2021/12/31 06:19:33;;;;;;;3.83;1.50;;;14.40;99.90;;;;;;4979956;28;20189;-75
2021/12/31 06:22:01;;;;;;;3.00;1.60;;;14.40;99.90;;;;;;4994213;28;20214;-75
2021/12/31 06:24:29;;;;;;;4.03;1.60;;;14.40;99.90;;;;;;4982397;28;20204;-74
2021/12/31 06:26:57;;;;;;;4.38;1.60;;;14.40;99.90;;;;;;4993915;28;20542;-74
2021/12/31 06:29:24;;;;;;;3.50;1.70;;;14.40;99.90;;;;;;4982958;28;20721;-74
2021/12/31 06:31:53;;;;;;;4.07;1.55;;;14.40;99.90;;;;;;4993394;28;20199;-73
2021/12/31 06:34:20;;;;;;;2.65;1.40;;;14.40;99.90;;;;;;4996638;28;20665;-73
2021/12/31 06:36:47;;;;;;;1.95;1.20;;;14.40;99.90;;;;;;4983868;28;20207;-75
2021/12/31 06:39:14;;;;;;;4.47;1.80;;;14.40;99.90;;;;;;4984191;28;20193;-74
2021/12/31 06:41:42;;;;;;;3.55;1.65;;;14.40;99.90;;;;;;4981736;28;20219;-74
2021/12/31 06:44:09;;;;;;;3.55;1.40;;;14.40;99.90;;;;;;4986717;28;20200;-74
2021/12/31 06:46:36;;;;;;;2.53;1.35;;;14.30;99.90;;;;;;4985522;28;20196;-74
2021/12/31 06:49:05;;;;;;;3.50;1.50;;;14.30;99.90;;;;;;4982918;28;20232;-75
2021/12/31 06:51:33;;;;;;;2.70;1.40;;;14.30;99.90;;;;;;4973158;28;20217;-74
2021/12/31 06:54:00;;;;;;;1.48;1.38;;;14.30;99.90;;;;;;4983778;28;20204;-74
2021/12/31 06:56:28;;;;;;;3.45;1.67;;;14.30;99.90;;;;;;4975455;28;20197;-74
2021/12/31 06:58:55;;;;;;;3.20;1.50;;;14.30;99.90;;;;;;4989768;28;20232;-74
2021/12/31 07:01:33;;;;;;;2.30;1.55;;;14.20;99.90;;;;;;4972484;28;20192;-72
2021/12/31 07:04:06;;;;;;;2.55;1.60;;;14.30;99.90;;;;;;4992600;28;20212;-72
2021/12/31 07:06:33;;;;;;;3.63;1.58;;;14.30;99.90;;;;;;4996096;28;20196;-74
2021/12/31 07:09:00;;;;;;;3.45;1.88;;;14.20;99.90;;;;;;4992440;28;20232;-73
2021/12/31 07:11:28;;;;;;;2.95;1.83;;;14.20;99.90;;;;;;4972842;28;20226;-74
2021/12/31 07:13:57;;;;;;;2.20;1.60;;;14.10;99.90;;;;;;4979603;28;20215;-73
2021/12/31 07:16:25;;;;;;;4.32;1.80;;;14.10;99.90;;;;;;4977121;28;20204;-74
2021/12/31 07:18:52;;;;;;;3.53;1.55;;;14.10;99.90;;;;;;4990709;28;20235;-74
2021/12/31 07:21:21;;;;;;;1.95;1.65;;;14.10;99.90;;;;;;4994143;28;20196;-74
2021/12/31 07:24:05;;;;;;;4.20;1.90;;;14.10;99.90;;;;;;4987886;28;20192;-71
2021/12/31 07:26:36;;;;;;;2.65;1.98;;;14.00;99.90;;;;;;4975532;28;20196;-75
2021/12/31 07:29:07;;;;;;;4.03;1.85;;;14.00;99.90;;;;;;4988992;28;20582;-73
2021/12/31 07:31:52;;;;;;;1.88;1.48;;;14.00;99.90;;;;;;5016686;28;20212;-73
2021/12/31 07:34:20;;;;;;;3.28;2.10;;;14.00;99.90;;;;;;4991993;28;20185;-74
2021/12/31 07:36:48;;;;;;;3.63;1.77;;;13.90;99.90;;;;;;5006010;28;20207;-73
2021/12/31 07:39:32;;;;;;;2.78;2.05;;;13.90;99.90;;;;;;4963575;28;20204;-74
2021/12/31 07:42:00;;;;;;;2.15;1.80;;;13.90;99.90;;;;;;4974694;28;20577;-74
2021/12/31 07:44:34;;;;;;;2.58;1.88;;;13.80;99.90;;;;;;5002538;28;20200;-78
2021/12/31 07:47:01;;;;;;;3.40;2.22;;;13.80;99.90;;;;;;4988674;28;20204;-73
2021/12/31 07:49:29;;;;;;;4.20;1.90;;;13.80;99.90;;;;;;4984210;28;20212;-73
2021/12/31 07:51:57;;;;;;;3.83;2.30;;;13.80;99.90;;;;;;4973092;28;20220;-73
2021/12/31 07:54:25;;;;;;;3.72;2.42;;;13.80;99.90;;;;;;4972221;28;20203;-72
2021/12/31 07:56:52;;;;;;;4.20;2.25;;;13.80;99.90;;;;;;4992451;28;20196;-73
2021/12/31 07:59:19;;;;;;;4.32;2.15;;;13.70;99.90;;;;;;4974776;28;20208;-74
2021/12/31 08:01:47;;;;;;;4.00;2.20;;;13.80;99.90;;;;;;4984609;28;20209;-73
2021/12/31 08:04:14;;;;;;;3.47;1.80;;;13.70;99.90;;;;;;4976847;28;20200;-72
2021/12/31 08:06:41;;;;;;;2.28;1.92;;;13.70;99.90;;;;;;4993610;28;20192;-73
2021/12/31 08:09:10;;;;;;;2.33;2.03;;;13.70;99.90;;;;;;4988755;28;20230;-73
2021/12/31 08:12:20;;;;;;;2.78;1.90;;;13.80;99.90;;;;;;4994923;28;20219;-72
2021/12/31 08:14:47;;;;;;;3.55;2.17;;;13.80;99.90;;;;;;4995820;28;20188;-73
2021/12/31 08:17:14;;;;;;;3.70;1.95;;;13.80;99.90;;;;;;5011103;28;20215;-73
2021/12/31 08:19:42;;;;;;;2.90;2.08;;;13.80;99.90;;;;;;4995081;28;20204;-73
2021/12/31 08:22:10;;;;;;;2.45;1.80;;;13.80;99.90;;;;;;5001468;28;20204;-73
2021/12/31 08:24:38;;;;;;;2.03;1.77;;;13.80;99.90;;;;;;4976068;28;20208;-73
2021/12/31 08:27:09;;;;;;;2.50;1.80;;;13.80;99.90;;;;;;5030332;23;20216;-74
2021/12/31 08:29:37;;;;;;;2.35;1.80;;;13.80;99.90;;;;;;4995881;28;20202;-74
2021/12/31 08:32:06;;;;;;;3.55;2.13;;;13.80;99.90;;;;;;5015816;28;20211;-74
2021/12/31 08:34:34;;;;;;;5.80;1.77;;;13.70;99.90;;;;;;5011453;28;20680;-74
2021/12/31 08:37:05;;;;;;;2.35;1.88;;;13.70;99.90;;;;;;5008355;28;20228;-74
2021/12/31 08:39:33;;;;;;;2.75;1.90;;;13.70;99.90;;;;;;4995636;28;20195;-74
2021/12/31 08:42:04;;;;;;;3.70;2.28;;;13.70;99.90;;;;;;5021408;28;20226;-74
2021/12/31 08:44:31;;;;;;;5.45;2.13;;;13.70;99.90;;;;;;5006236;28;20208;-74
2021/12/31 08:46:58;;;;;;;4.13;2.45;;;13.70;99.90;;;;;;5007880;28;20216;-74
2021/12/31 08:49:26;;;;;;;3.58;1.88;;;13.70;99.90;;;;;;5019533;28;20692;-74
2021/12/31 08:51:53;;;;;;;2.92;1.75;;;13.70;99.90;;;;;;4992887;28;20679;-74
2021/12/31 08:54:51;;;;;;;2.80;1.58;;;13.70;99.90;;;;;;4992076;28;20223;-74
2021/12/31 08:57:20;;;;;;;2.90;1.60;;;13.70;99.90;;;;;;4975372;28;20228;-74
2021/12/31 08:59:47;;;;;;;2.15;1.80;;;13.60;99.90;;;;;;4992847;28;20193;-74
2021/12/31 09:02:15;;;;;;;4.10;1.85;;;13.70;99.90;;;;;;5007354;28;20196;-74
2021/12/31 09:04:42;;;;;;;2.53;2.10;;;13.60;99.90;;;;;;4992921;28;20184;-75
2021/12/31 09:07:09;;;;;;;3.45;1.90;;;13.60;99.90;;;;;;4987937;28;20698;-74
2021/12/31 09:09:37;;;;;;;2.63;1.88;;;13.60;99.90;;;;;;4988240;28;20205;-74
2021/12/31 09:12:05;;;;;;;2.20;1.67;;;13.60;99.90;;;;;;4973565;28;20200;-74
2021/12/31 09:14:34;;;;;;;2.03;1.83;;;13.60;99.90;;;;;;5000466;28;20208;-75
2021/12/31 09:17:01;;;;;;;2.85;1.83;;;13.60;99.90;;;;;;5010031;28;20215;-74
2021/12/31 09:19:29;;;;;;;2.63;1.92;;;13.60;99.90;;;;;;5014832;28;20211;-74
2021/12/31 09:21:57;;;;;;;3.53;1.88;;;13.50;99.90;;;;;;5023775;28;20196;-74
2021/12/31 09:24:24;;;;;;;3.95;2.00;;;13.50;99.90;;;;;;4995220;28;20204;-74
2021/12/31 09:26:52;;;;;;;2.55;2.05;;;13.50;99.90;;;;;;5006849;28;20224;-74
2021/12/31 09:29:21;;;;;;;2.85;1.90;;;13.60;99.90;;;;;;4992887;28;20310;-74
2021/12/31 09:31:50;;;;;;;4.13;2.10;;;13.60;99.90;;;;;;5001977;28;20568;-74
2021/12/31 09:34:18;;;;;;;2.60;1.73;;;13.60;99.90;;;;;;5014222;28;20208;-74
2021/12/31 09:36:45;;;;;;;2.40;1.85;;;13.60;99.90;;;;;;5011968;28;20694;-74
2021/12/31 09:39:13;;;;;;;2.80;1.40;;;13.60;99.90;;;;;;5014849;28;20219;-74
2021/12/31 09:41:40;;;;;;;3.75;1.95;;;13.60;99.90;;;;;;5031148;28;20196;-74
2021/12/31 09:44:52;;;;;;;2.80;2.00;;;13.60;99.90;;;;;;5004686;28;20584;-74
2021/12/31 09:47:21;;;;;;;1.75;1.65;;;13.60;99.90;;;;;;4989852;28;20224;-75
2021/12/31 09:49:49;;;;;;;2.92;2.00;;;13.60;99.90;;;;;;5013399;28;20204;-74
2021/12/31 09:52:18;;;;;;;2.47;1.80;;;13.70;99.90;;;;;;5006839;28;20582;-78
2021/12/31 09:54:47;;;;;;;2.08;1.83;;;13.70;99.90;;;;;;4995708;28;20200;-78
2021/12/31 09:57:15;;;;;;;3.33;1.80;;;13.70;99.90;;;;;;4997622;28;20227;-74
2021/12/31 09:59:43;;;;;;;2.60;1.77;;;13.70;99.90;;;;;;4996852;28;20203;-75
2021/12/31 10:02:11;;;;;;;2.60;1.88;;;13.70;99.90;;;;;;4984615;28;20201;-73
2021/12/31 10:04:53;;;;;;;2.47;1.70;;;13.60;99.90;;;;;;5006573;28;20211;-74
2021/12/31 10:07:23;;;;;;;2.17;1.88;;;13.60;99.90;;;;;;4986281;28;20230;-74
2021/12/31 10:10:08;;;;;;;2.20;2.00;;;13.60;99.90;;;;;;5016542;28;20203;-75
2021/12/31 10:12:47;;;;;;;1.83;1.60;;;13.60;99.90;;;;;;4995941;28;20215;-75
2021/12/31 10:15:15;;;;;;;3.47;1.65;;;13.60;99.90;;;;;;5000648;28;20192;-74
2021/12/31 10:17:42;;;;;;;3.45;2.10;;;13.70;99.90;;;;;;4994460;28;20220;-75
2021/12/31 10:20:11;;;;;;;2.83;2.03;;;13.60;99.90;;;;;;4992790;28;20580;-74
2021/12/31 10:22:38;;;;;;;4.00;1.85;;;13.60;99.90;;;;;;5006853;28;20193;-75
2021/12/31 10:25:18;;;;;;;3.53;1.95;;;13.70;99.90;;;;;;4976412;28;20189;-75
2021/12/31 10:27:45;;;;;;;2.28;2.08;;;13.70;99.90;;;;;;4975822;28;20221;-74
2021/12/31 10:30:12;;;;;;;4.38;2.03;;;13.70;99.90;;;;;;4974499;28;20205;-75
2021/12/31 10:32:41;;;;;;;2.05;1.85;;;13.70;99.90;;;;;;4990545;28;20579;-75
2021/12/31 10:35:11;;;;;;;2.38;2.08;;;13.70;99.90;;;;;;4990874;28;20196;-75
2021/12/31 10:37:43;;;;;;;2.70;1.90;;;13.70;99.90;;;;;;4975588;28;20215;-75
2021/12/31 10:40:11;;;;;;;3.13;2.00;;;13.80;99.90;;;;;;4976181;28;20177;-74
2021/12/31 10:42:42;;;;;;;2.15;1.80;;;13.80;99.90;;;;;;4995306;28;20196;-74
2021/12/31 10:45:10;;;;;;;1.92;1.77;;;13.80;99.90;;;;;;5010106;28;20204;-75
2021/12/31 10:47:42;;;;;;;2.47;2.28;;;13.70;99.90;;;;;;4994134;28;20220;-75
2021/12/31 10:50:14;;;;;;;3.35;1.80;;;13.80;99.90;;;;;;5009947;28;20208;-76
2021/12/31 10:52:47;;;;;;;2.78;2.20;;;13.80;99.90;;;;;;4990483;28;20213;-75
2021/12/31 10:55:22;;;;;;;2.50;1.80;;;13.80;99.90;;;;;;4995414;28;20177;-75
2021/12/31 10:57:52;;;;;;;3.97;2.15;;;13.80;99.90;;;;;;5009527;28;20216;-74
2021/12/31 11:00:21;;;;;;;2.38;1.88;;;13.70;99.90;;;;;;5009831;28;20207;-74
2021/12/31 11:02:49;;;;;;;2.05;1.90;;;13.70;99.90;;;;;;5009704;28;20211;-74
2021/12/31 11:05:20;;;;;;;1.90;1.63;;;13.80;99.90;;;;;;4995022;28;20189;-74
2021/12/31 11:07:48;;;;;;;3.78;1.67;;;13.80;99.90;;;;;;5009115;28;20557;-75
2021/12/31 11:10:16;;;;;;;6.25;2.30;;;13.80;99.90;;;;;;4992990;28;20209;-75
2021/12/31 11:13:04;;;;;;;2.35;2.00;;;13.80;99.90;;;;;;4987847;28;20217;-76
2021/12/31 11:15:32;;;;;;;2.53;1.80;;;13.80;99.90;;;;;;4985125;28;20189;-75
2021/12/31 11:17:59;;;;;;;3.63;2.13;;;13.80;99.90;;;;;;5006838;28;20224;-74
2021/12/31 11:20:28;;;;;;;2.30;2.10;;;13.80;99.90;;;;;;4987896;28;20214;-74
2021/12/31 11:22:55;;;;;;;2.35;1.88;;;13.80;99.90;;;;;;5011609;28;20851;-74
2021/12/31 11:25:25;;;;;;;2.53;1.80;;;13.80;99.90;;;;;;5041132;28;20200;-74
2021/12/31 11:27:54;;;;;;;3.17;2.05;;;13.80;99.90;;;;;;4992522;28;20236;-75
2021/12/31 11:30:31;;;;;;;2.53;1.80;;;13.80;99.90;;;;;;5012553;28;20196;-75
2021/12/31 11:33:06;;;;;;;3.92;2.00;;;13.80;99.90;;;;;;4997006;28;20682;-75
2021/12/31 11:35:40;;;;;;;1.92;1.75;;;13.80;99.90;;;;;;4993467;28;20192;-74
2021/12/31 11:38:13;;;;;;;2.95;1.90;;;13.80;99.90;;;;;;4991812;28;20219;-74
2021/12/31 11:40:44;;;;;;;3.38;2.15;;;13.80;99.90;;;;;;4994165;28;20215;-75
2021/12/31 11:43:30;;;;;;;3.20;2.05;;;13.80;99.90;;;;;;5008481;28;20200;-75
2021/12/31 11:46:44;;;;;;;2.13;1.92;;;13.90;99.90;;;;;;4998927;28;20213;-75
2021/12/31 11:49:20;;;;;;;1.90;1.80;;;13.90;99.90;;;;;;4999728;28;20203;-75
2021/12/31 11:52:00;;;;;;;2.85;1.75;;;13.90;99.90;;;;;;4991748;28;20534;-75
2021/12/31 11:54:28;;;;;;;3.05;1.90;;;14.00;99.90;;;;;;4998477;28;20200;-76
2021/12/31 11:57:10;;;;;;;3.40;1.98;;;14.00;99.90;;;;;;4988303;28;20209;-75
2021/12/31 11:59:52;;;;;;;2.65;2.05;;;14.00;99.90;;;;;;4989647;28;20196;-75
2021/12/31 12:02:49;;;;;;;2.50;1.77;;;14.10;99.90;;;;;;5001701;28;20201;-74
2021/12/31 12:05:17;;;;;;;3.08;1.75;;;14.10;99.90;;;;;;5004464;28;20204;-76
2021/12/31 12:07:47;;;;;;;3.20;1.90;;;14.20;99.90;;;;;;5003727;28;20575;-75
2021/12/31 12:10:29;;;;;;;2.10;1.70;;;14.20;99.90;;;;;;4993739;28;20211;-75
2021/12/31 12:13:25;;;;;;;2.92;1.98;;;14.30;99.90;;;;;;5006896;28;20227;-76
2021/12/31 12:15:53;;;;;;;3.20;1.95;;;14.50;99.90;;;;;;4975987;28;20219;-76
2021/12/31 12:19:13;;;;;;;1.80;1.50;;;14.60;99.90;;;;;;4998718;28;20184;-74
2021/12/31 12:21:52;;;;;;;3.45;2.00;;;14.50;99.90;;;;;;4995397;28;20199;-75
2021/12/31 12:24:25;;;;;;;2.65;1.75;;;14.40;99.90;;;;;;5005522;28;20204;-75
2021/12/31 12:26:52;;;;;;;1.73;1.63;;;14.50;99.90;;;;;;4982437;28;20225;-74
2021/12/31 12:29:25;;;;;;;2.75;2.08;;;14.70;99.90;;;;;;5006503;28;20207;-75
2021/12/31 12:32:08;;;;;;;2.63;1.63;;;14.90;99.90;;;;;;4999241;28;20204;-75
2021/12/31 12:34:44;;;;;;;2.15;1.90;;;14.70;99.90;;;;;;5005016;28;20199;-75
2021/12/31 12:37:11;;;;;;;2.53;1.67;;;14.70;99.90;;;;;;5000193;28;20250;-74
2021/12/31 12:39:40;;;;;;;2.58;2.17;;;14.60;99.90;;;;;;5010052;28;20208;-74
2021/12/31 12:42:17;;;;;;;2.88;2.03;;;14.50;99.90;;;;;;5007232;28;20227;-74
2021/12/31 12:44:58;;;;;;;2.83;2.03;;;14.50;99.90;;;;;;5006660;28;20684;-76
2021/12/31 12:47:25;;;;;;;2.63;1.48;;;14.50;99.90;;;;;;5003730;28;20219;-75
2021/12/31 12:49:55;;;;;;;2.53;1.83;;;14.60;99.90;;;;;;5012967;28;20207;-75
2021/12/31 12:52:23;;;;;;;1.50;1.40;;;14.80;99.90;;;;;;5006157;28;20204;-75
2021/12/31 12:55:10;;;;;;;2.13;1.77;;;15.30;99.90;;;;;;4991951;28;20208;-76
2021/12/31 12:57:38;;;;;;;1.67;1.58;;;15.70;99.90;;;;;;5005624;28;20216;-76
2021/12/31 13:00:07;;;;;;;3.88;1.80;;;16.00;99.90;;;;;;4998613;28;20212;-76
2021/12/31 13:02:41;;;;;;;3.50;1.88;;;16.10;99.90;;;;;;4986661;28;20207;-75
2021/12/31 13:05:11;;;;;;;2.47;1.88;;;16.10;99.90;;;;;;5003085;28;20205;-76
2021/12/31 13:07:39;;;;;;;3.50;1.70;;;16.10;99.90;;;;;;4996374;28;20220;-76
2021/12/31 13:10:08;;;;;;;3.80;1.70;;;16.30;99.90;;;;;;4989901;28;20223;-76